Time;durP1;ratioP1;P1;durP2;ratioP2;P2;SDS_P1;SDS_P2;PMS_P1;PMS_P2;Temp;Humidity;BMP_temperature;BMP_pressure;BME280_temperature;BME280_humidity;BME280_pressure;Samples;Min_cycle;Max_cycle;Signal;HPM_P1;HPM_P2
2021/09/27 00:02:19;;;;;;;3.22;2.03;;;10.90;94.80;;;;;;4901077;29;20037;-92
2021/09/27 00:04:45;;;;;;;1.52;1.42;;;10.80;94.70;;;;;;4885222;29;20132;-93
2021/09/27 00:07:11;;;;;;;1.63;1.52;;;10.90;95.00;;;;;;4885124;29;20036;-93
2021/09/27 00:09:36;;;;;;;1.83;1.60;;;10.80;95.20;;;;;;4884427;29;20037;-92
2021/09/27 00:12:06;;;;;;;1.70;1.15;;;10.80;95.20;;;;;;4900114;29;20487;-92
2021/09/27 00:14:32;;;;;;;4.85;1.55;;;10.80;95.30;;;;;;4900686;29;20037;-92
2021/09/27 00:16:58;;;;;;;3.08;1.48;;;10.70;95.20;;;;;;4884011;29;20036;-92
2021/09/27 00:19:24;;;;;;;2.47;1.88;;;10.70;95.20;;;;;;4901191;29;20036;-93
2021/09/27 00:21:52;;;;;;;3.60;1.85;;;10.70;95.30;;;;;;4883895;29;20040;-93
2021/09/27 00:24:18;;;;;;;2.25;1.45;;;10.70;95.40;;;;;;4884865;29;20074;-93
2021/09/27 00:26:45;;;;;;;1.85;1.45;;;10.70;95.30;;;;;;4884361;29;20127;-93
2021/09/27 00:29:11;;;;;;;1.73;1.38;;;10.60;95.40;;;;;;4884268;29;20097;-92
2021/09/27 00:31:36;;;;;;;2.55;1.55;;;10.60;95.40;;;;;;4884436;29;20048;-92
2021/09/27 00:34:02;;;;;;;3.35;1.55;;;10.60;95.40;;;;;;4884575;29;20041;-92
2021/09/27 00:36:28;;;;;;;1.15;1.00;;;10.60;95.60;;;;;;4903482;29;20040;-92
2021/09/27 00:38:54;;;;;;;1.25;1.15;;;10.60;95.40;;;;;;4886257;29;20421;-91
2021/09/27 00:41:21;;;;;;;2.83;1.10;;;10.60;95.40;;;;;;4887151;29;20063;-92
2021/09/27 00:43:50;;;;;;;1.90;1.42;;;10.60;95.40;;;;;;4884969;29;20055;-92
2021/09/27 00:46:20;;;;;;;1.25;1.05;;;10.60;95.40;;;;;;4884703;29;20053;-92
2021/09/27 00:48:46;;;;;;;1.58;1.17;;;10.60;95.50;;;;;;4884652;29;20040;-92
2021/09/27 00:51:32;;;;;;;1.77;1.20;;;10.60;95.70;;;;;;4883935;29;20045;-93
2021/09/27 00:54:28;;;;;;;3.55;2.20;;;10.50;95.80;;;;;;4904019;29;20047;-93
2021/09/27 00:57:03;;;;;;;2.13;1.40;;;10.50;96.20;;;;;;4885877;29;20032;-92
2021/09/27 00:59:30;;;;;;;2.67;1.23;;;10.50;95.90;;;;;;4904431;29;20057;-93
2021/09/27 01:01:56;;;;;;;1.58;1.33;;;10.50;96.00;;;;;;4887451;29;20123;-93
2021/09/27 01:04:21;;;;;;;1.58;1.02;;;10.50;96.10;;;;;;4887485;29;20063;-90
2021/09/27 01:07:37;;;;;;;1.63;1.52;;;10.50;96.00;;;;;;4903035;29;20040;-92
2021/09/27 01:10:31;;;;;;;1.75;1.40;;;10.50;96.40;;;;;;4879227;29;20045;-92
2021/09/27 01:13:06;;;;;;;1.87;1.53;;;10.50;96.20;;;;;;4887405;29;20045;-92
2021/09/27 01:15:42;;;;;;;1.85;1.40;;;10.50;96.10;;;;;;4887600;29;20404;-93
2021/09/27 01:18:14;;;;;;;1.55;1.23;;;10.50;96.20;;;;;;4903741;29;20039;-93
2021/09/27 01:20:57;;;;;;;2.28;1.33;;;10.50;96.20;;;;;;4886824;29;20100;-92
2021/09/27 01:23:55;;;;;;;4.95;1.25;;;10.50;96.20;;;;;;4887634;29;20044;-92
2021/09/27 01:26:52;;;;;;;1.98;1.10;;;10.50;96.20;;;;;;4881412;29;20083;-92
2021/09/27 01:29:53;;;;;;;1.48;1.38;;;10.60;96.00;;;;;;4887966;29;20100;-92
2021/09/27 01:32:59;;;;;;;1.42;1.33;;;10.50;96.30;;;;;;4887052;29;20045;-92
2021/09/27 01:35:48;;;;;;;2.25;1.48;;;10.50;96.30;;;;;;4887782;29;20131;-92
2021/09/27 01:38:32;;;;;;;2.60;1.38;;;10.50;96.30;;;;;;4886971;29;20097;-93
2021/09/27 01:41:17;;;;;;;2.58;1.15;;;10.40;96.20;;;;;;4887470;29;20048;-92
2021/09/27 01:44:14;;;;;;;1.27;1.15;;;10.40;96.60;;;;;;4903810;29;20044;-92
2021/09/27 01:46:57;;;;;;;1.73;1.40;;;10.40;96.60;;;;;;4869771;29;20155;-91
2021/09/27 01:49:39;;;;;;;1.33;1.23;;;10.40;96.70;;;;;;4868814;29;20041;-92
2021/09/27 01:52:18;;;;;;;1.67;1.35;;;10.30;96.70;;;;;;4868458;29;20049;-93
2021/09/27 01:54:55;;;;;;;1.73;1.40;;;10.30;96.80;;;;;;4867359;29;20041;-92
2021/09/27 01:57:45;;;;;;;1.63;1.33;;;10.30;96.70;;;;;;4867274;29;20033;-92
2021/09/27 02:00:11;;;;;;;1.67;1.35;;;10.30;97.10;;;;;;4866223;29;20079;-92
2021/09/27 02:02:54;;;;;;;1.75;1.33;;;10.20;97.10;;;;;;4866111;29;20044;-93
2021/09/27 02:05:30;;;;;;;1.65;0.95;;;10.20;97.40;;;;;;4866939;29;20068;-92
2021/09/27 02:08:15;;;;;;;2.13;1.50;;;10.20;97.40;;;;;;4866302;29;20041;-92
2021/09/27 02:10:51;;;;;;;2.17;1.60;;;10.20;97.60;;;;;;4866181;29;20045;-91
2021/09/27 02:13:17;;;;;;;1.20;0.90;;;10.20;97.70;;;;;;4866636;29;20037;-93
2021/09/27 02:15:52;;;;;;;1.33;1.23;;;10.20;97.80;;;;;;4866458;29;20065;-93
2021/09/27 02:18:30;;;;;;;1.55;1.15;;;10.20;98.00;;;;;;4882777;29;20060;-93
2021/09/27 02:21:02;;;;;;;1.42;1.02;;;10.20;97.80;;;;;;4865977;29;20045;-93
2021/09/27 02:23:55;;;;;;;2.08;1.27;;;10.30;97.70;;;;;;4865991;29;20041;-92
2021/09/27 02:26:21;;;;;;;1.92;1.08;;;10.30;97.70;;;;;;4866060;29;20041;-92
2021/09/27 02:28:47;;;;;;;1.10;1.10;;;10.30;97.70;;;;;;4866704;29;20041;-93
2021/09/27 02:31:25;;;;;;;1.85;1.05;;;10.30;97.90;;;;;;4866087;29;20045;-92
2021/09/27 02:33:57;;;;;;;3.00;1.50;;;10.30;97.90;;;;;;4866677;29;20453;-93
2021/09/27 02:36:36;;;;;;;2.78;2.10;;;10.20;97.80;;;;;;4866538;29;20102;-92
2021/09/27 02:39:13;;;;;;;1.85;1.50;;;10.20;98.00;;;;;;4866360;29;20088;-92
2021/09/27 02:41:48;;;;;;;3.40;1.83;;;10.10;97.80;;;;;;4866561;29;20072;-92
2021/09/27 02:44:15;;;;;;;1.52;1.40;;;10.10;98.10;;;;;;4884953;29;20060;-92
2021/09/27 02:46:43;;;;;;;1.65;1.35;;;10.10;98.00;;;;;;4900279;29;20032;-92
2021/09/27 02:49:12;;;;;;;2.53;1.20;;;10.00;98.10;;;;;;4900778;29;20144;-92
2021/09/27 02:51:47;;;;;;;1.95;1.65;;;10.00;98.20;;;;;;4899486;29;20040;-93
2021/09/27 02:54:19;;;;;;;3.78;1.65;;;9.90;98.40;;;;;;4899560;29;20048;-93
2021/09/27 02:57:13;;;;;;;1.30;1.20;;;9.90;98.50;;;;;;4902464;29;20044;-92
2021/09/27 02:59:57;;;;;;;1.65;1.55;;;9.80;98.50;;;;;;4904488;29;20037;-92
2021/09/27 03:02:29;;;;;;;2.75;1.48;;;9.80;98.40;;;;;;4916619;29;20035;-92
2021/09/27 03:05:04;;;;;;;2.53;1.75;;;9.80;98.50;;;;;;4915974;29;20044;-92
2021/09/27 03:08:04;;;;;;;1.75;1.23;;;9.70;99.30;;;;;;4901716;29;20067;-92
2021/09/27 03:10:37;;;;;;;2.03;1.27;;;9.70;99.20;;;;;;4916778;29;20049;-93
2021/09/27 03:13:31;;;;;;;2.20;1.38;;;9.70;99.10;;;;;;4901795;29;20036;-92
2021/09/27 03:16:12;;;;;;;;;;;9.70;99.40;;;;;;4900205;29;20048;-92
2021/09/27 03:19:07;;;;;;;2.08;1.63;;;9.60;99.90;;;;;;4916797;29;19998;-92
2021/09/27 03:21:38;;;;;;;;;;;9.60;99.90;;;;;;4893583;29;20385;-93
2021/09/27 03:24:23;;;;;;;1.40;0.90;;;9.60;99.90;;;;;;4916253;29;19923;-92
2021/09/27 03:27:06;;;;;;;1.88;1.30;;;9.50;99.60;;;;;;4901397;29;20037;-93
2021/09/27 03:30:21;;;;;;;2.60;1.02;;;9.50;99.80;;;;;;4916023;29;20041;-91
2021/09/27 03:32:50;;;;;;;1.97;1.07;;;9.50;99.80;;;;;;4878364;29;20040;-92
2021/09/27 03:35:31;;;;;;;2.08;1.15;;;9.50;99.80;;;;;;4901554;29;20033;-93
2021/09/27 03:38:04;;;;;;;1.98;1.70;;;9.40;99.90;;;;;;4915969;29;20086;-93
2021/09/27 03:40:45;;;;;;;1.43;1.27;;;9.40;99.90;;;;;;4900708;29;20044;-93
2021/09/27 03:43:45;;;;;;;4.47;1.63;;;9.40;99.90;;;;;;4916282;29;20064;-91
2021/09/27 03:46:11;;;;;;;2.35;1.45;;;9.40;99.90;;;;;;4898236;29;20499;-90
2021/09/27 03:48:56;;;;;;;1.52;1.40;;;9.40;99.90;;;;;;4915483;29;20032;-91
2021/09/27 03:51:54;;;;;;;;;;;9.40;99.90;;;;;;4916387;29;20139;-90
2021/09/27 03:54:52;;;;;;;1.38;1.27;;;9.40;99.90;;;;;;4879918;29;20346;-92
2021/09/27 03:57:36;;;;;;;2.15;1.38;;;9.30;99.90;;;;;;4900396;29;20036;-92
2021/09/27 04:00:08;;;;;;;;;;;9.30;99.90;;;;;;4900603;29;20051;-92
2021/09/27 04:02:45;;;;;;;1.17;1.08;;;9.30;99.90;;;;;;4900078;29;19912;-91
2021/09/27 04:05:23;;;;;;;1.27;1.17;;;9.30;99.90;;;;;;4901047;29;20048;-92
2021/09/27 04:07:54;;;;;;;2.05;1.50;;;9.30;99.90;;;;;;4902499;29;20036;-91
2021/09/27 04:10:42;;;;;;;1.17;1.13;;;9.30;99.90;;;;;;4902728;29;20081;-90
2021/09/27 04:13:35;;;;;;;2.28;1.73;;;9.30;99.90;;;;;;4918364;29;20045;-91
2021/09/27 04:16:15;;;;;;;2.13;1.58;;;9.30;99.90;;;;;;4900707;29;20036;-92
2021/09/27 04:18:47;;;;;;;1.75;1.40;;;9.30;99.90;;;;;;4899935;29;20124;-92
2021/09/27 04:21:47;;;;;;;3.33;2.10;;;9.40;99.90;;;;;;4915045;29;20040;-92
2021/09/27 04:24:12;;;;;;;2.50;1.88;;;9.40;99.90;;;;;;4896578;29;20032;-92
2021/09/27 04:27:09;;;;;;;2.35;1.50;;;9.50;99.90;;;;;;4917419;29;20395;-92
2021/09/27 04:30:04;;;;;;;1.55;1.23;;;9.50;99.90;;;;;;4903331;29;20043;-92
2021/09/27 04:32:37;;;;;;;1.38;1.27;;;9.50;99.90;;;;;;4919431;29;20064;-91
2021/09/27 04:35:05;;;;;;;1.38;1.27;;;9.60;99.90;;;;;;4903585;29;20064;-91
2021/09/27 04:37:31;;;;;;;2.63;2.28;;;9.60;99.90;;;;;;4918836;29;20037;-92
2021/09/27 04:39:58;;;;;;;2.58;2.05;;;9.60;99.90;;;;;;4919817;29;20455;-93
2021/09/27 04:42:46;;;;;;;1.50;1.40;;;9.70;99.90;;;;;;4902779;29;20083;-92
2021/09/27 04:46:04;;;;;;;2.47;1.75;;;9.70;99.90;;;;;;4917997;29;20096;-91
2021/09/27 04:49:21;;;;;;;3.65;1.45;;;9.70;99.90;;;;;;4886862;29;20033;-92
2021/09/27 04:52:03;;;;;;;5.28;1.85;;;9.80;99.90;;;;;;4871698;29;20051;-92
2021/09/27 04:54:54;;;;;;;2.00;1.58;;;9.80;99.90;;;;;;4902422;29;20041;-92
2021/09/27 04:57:36;;;;;;;1.35;1.10;;;9.90;99.90;;;;;;4917375;29;20093;-91
2021/09/27 05:00:16;;;;;;;3.10;1.65;;;9.90;99.90;;;;;;4917614;29;20180;-92
2021/09/27 05:03:02;;;;;;;3.80;1.52;;;9.90;99.90;;;;;;4918330;29;20099;-92
2021/09/27 05:06:01;;;;;;;1.63;1.25;;;10.00;99.80;;;;;;4921653;29;20447;-93
2021/09/27 05:08:26;;;;;;;1.35;1.25;;;10.00;99.90;;;;;;4901057;29;20067;-93
2021/09/27 05:11:11;;;;;;;1.85;1.33;;;10.00;99.50;;;;;;4902009;29;20045;-90
2021/09/27 05:13:45;;;;;;;1.95;1.75;;;10.10;99.50;;;;;;4902172;29;20112;-91
2021/09/27 05:16:16;;;;;;;2.13;1.55;;;10.10;99.40;;;;;;4903992;29;20033;-89
2021/09/27 05:18:45;;;;;;;2.58;1.65;;;10.10;99.50;;;;;;4905544;29;20033;-90
2021/09/27 05:21:31;;;;;;;4.00;1.85;;;10.20;99.30;;;;;;4903486;29;20041;-89
2021/09/27 05:24:21;;;;;;;2.05;1.80;;;10.20;99.10;;;;;;4885357;29;20041;-91
2021/09/27 05:27:07;;;;;;;4.00;1.88;;;10.20;99.00;;;;;;4902053;29;20039;-91
2021/09/27 05:30:05;;;;;;;1.70;1.13;;;10.20;99.00;;;;;;4902516;29;20108;-91
2021/09/27 05:32:58;;;;;;;1.10;1.00;;;10.20;98.70;;;;;;4901982;29;20077;-91
2021/09/27 05:35:27;;;;;;;2.20;1.60;;;10.20;98.90;;;;;;4885848;29;20446;-91
2021/09/27 05:37:52;;;;;;;1.75;1.40;;;10.20;98.90;;;;;;4900870;29;20097;-93
2021/09/27 05:40:36;;;;;;;2.17;1.52;;;10.20;98.90;;;;;;4901870;29;20091;-91
2021/09/27 05:43:28;;;;;;;1.67;1.55;;;10.30;98.70;;;;;;4901101;29;20041;-92
2021/09/27 05:46:06;;;;;;;1.38;1.27;;;10.30;98.70;;;;;;4900540;29;20092;-92
2021/09/27 05:48:40;;;;;;;4.28;1.42;;;10.40;98.30;;;;;;4901428;29;20133;-91
2021/09/27 05:51:20;;;;;;;1.50;1.40;;;10.40;98.10;;;;;;4886958;29;20495;-92
2021/09/27 05:53:58;;;;;;;8.30;1.85;;;10.50;98.10;;;;;;4886952;29;20408;-92
2021/09/27 05:56:46;;;;;;;1.55;1.45;;;10.50;98.10;;;;;;4900836;29;20033;-89
2021/09/27 05:59:49;;;;;;;2.30;1.40;;;10.50;97.90;;;;;;4900868;29;20041;-90
2021/09/27 06:02:56;;;;;;;1.88;1.67;;;10.60;97.90;;;;;;4830885;29;20037;-92
2021/09/27 06:05:49;;;;;;;2.10;1.30;;;10.60;97.00;;;;;;4882095;29;20167;-92
2021/09/27 06:08:22;;;;;;;1.25;1.10;;;10.70;97.20;;;;;;4900931;29;20464;-90
2021/09/27 06:11:16;;;;;;;1.00;0.90;;;10.70;97.20;;;;;;4900074;29;20048;-90
2021/09/27 06:13:48;;;;;;;6.13;1.30;;;10.70;97.10;;;;;;4900350;29;20036;-91
2021/09/27 06:16:23;;;;;;;2.88;1.92;;;10.80;97.00;;;;;;4900145;29;20043;-90
2021/09/27 06:19:22;;;;;;;1.98;1.77;;;10.90;96.80;;;;;;4901779;29;20032;-93
2021/09/27 06:22:52;;;;;;;2.40;1.70;;;10.90;96.30;;;;;;4901575;29;20048;-92
2021/09/27 06:25:18;;;;;;;2.40;1.60;;;10.90;96.40;;;;;;4847006;29;20083;-90
2021/09/27 06:28:07;;;;;;;2.20;1.60;;;11.00;96.60;;;;;;4889801;29;20484;-91
2021/09/27 06:30:39;;;;;;;4.13;1.42;;;11.10;96.50;;;;;;4901859;29;20051;-91
2021/09/27 06:33:32;;;;;;;1.48;1.35;;;11.20;96.60;;;;;;4901604;29;20388;-91
2021/09/27 06:36:03;;;;;;;1.20;1.15;;;11.30;96.20;;;;;;4900578;29;20037;-92
2021/09/27 06:38:34;;;;;;;1.70;1.60;;;11.50;95.80;;;;;;4884776;29;20072;-93
2021/09/27 06:41:01;;;;;;;1.70;1.60;;;11.50;95.40;;;;;;4884358;29;20093;-92
2021/09/27 06:43:28;;;;;;;2.08;1.92;;;11.50;95.20;;;;;;4884646;29;20071;-92
2021/09/27 06:45:54;;;;;;;1.45;1.27;;;11.50;95.40;;;;;;4883941;29;20104;-92
2021/09/27 06:48:21;;;;;;;2.08;1.80;;;11.60;95.30;;;;;;4884127;29;20484;-92
2021/09/27 06:50:48;;;;;;;1.95;1.70;;;11.60;95.00;;;;;;4882956;29;20396;-93
2021/09/27 06:53:14;;;;;;;1.80;1.65;;;11.60;95.00;;;;;;4883488;29;20040;-92
2021/09/27 06:55:43;;;;;;;3.58;1.70;;;11.60;94.80;;;;;;4883799;29;20124;-92
2021/09/27 06:58:09;;;;;;;3.17;1.98;;;11.60;94.80;;;;;;4884285;29;20036;-93
2021/09/27 07:00:35;;;;;;;2.63;1.30;;;11.60;94.90;;;;;;4900268;29;20543;-91
2021/09/27 07:03:01;;;;;;;1.73;1.23;;;11.70;94.50;;;;;;4883729;29;20123;-91
2021/09/27 07:05:27;;;;;;;1.38;1.30;;;11.80;94.70;;;;;;4883718;29;20079;-92
2021/09/27 07:07:53;;;;;;;1.25;1.17;;;11.80;94.50;;;;;;4899922;29;20168;-93
2021/09/27 07:10:25;;;;;;;1.95;1.63;;;11.90;94.50;;;;;;4883513;29;20506;-92
2021/09/27 07:12:51;;;;;;;3.10;1.60;;;12.00;94.20;;;;;;4883748;29;20033;-92
2021/09/27 07:15:18;;;;;;;1.48;1.38;;;12.10;93.90;;;;;;4883498;29;20045;-91
2021/09/27 07:17:46;;;;;;;3.20;1.58;;;12.10;94.00;;;;;;4883432;29;20041;-91
2021/09/27 07:20:17;;;;;;;1.98;1.55;;;12.20;93.80;;;;;;4883266;29;20048;-92
2021/09/27 07:22:43;;;;;;;2.17;1.65;;;12.30;93.70;;;;;;4883019;29;20088;-92
2021/09/27 07:25:10;;;;;;;2.70;1.40;;;12.30;93.60;;;;;;4883183;29;20041;-92
2021/09/27 07:27:36;;;;;;;1.98;1.40;;;12.40;93.20;;;;;;4883154;29;20032;-92
2021/09/27 07:30:05;;;;;;;1.38;1.13;;;12.40;93.30;;;;;;4883436;29;20104;-92
2021/09/27 07:32:31;;;;;;;2.42;1.48;;;12.50;93.40;;;;;;4883370;29;20109;-92
2021/09/27 07:34:56;;;;;;;2.83;1.63;;;12.60;93.30;;;;;;4883463;29;20056;-91
2021/09/27 07:37:22;;;;;;;1.67;0.98;;;12.60;93.00;;;;;;4885829;29;20036;-91
2021/09/27 07:39:48;;;;;;;1.80;1.30;;;12.70;93.10;;;;;;4916575;29;20098;-92
2021/09/27 07:42:14;;;;;;;1.25;1.15;;;12.80;93.00;;;;;;4902733;29;20218;-93
2021/09/27 07:44:39;;;;;;;1.58;1.20;;;12.90;92.40;;;;;;4900997;29;20052;-91
2021/09/27 07:47:06;;;;;;;2.65;1.70;;;12.90;92.00;;;;;;4901785;29;20063;-93
2021/09/27 07:49:31;;;;;;;2.10;1.25;;;12.90;91.80;;;;;;4918667;29;20088;-91
2021/09/27 07:52:00;;;;;;;1.52;1.08;;;12.90;91.70;;;;;;4901701;29;20040;-91
2021/09/27 07:54:26;;;;;;;1.30;1.20;;;13.00;91.60;;;;;;4902210;29;20092;-90
2021/09/27 07:56:53;;;;;;;2.30;1.02;;;13.00;91.40;;;;;;4902570;29;20040;-91
2021/09/27 07:59:18;;;;;;;1.73;1.25;;;13.00;90.80;;;;;;4901316;29;20116;-91
2021/09/27 08:01:44;;;;;;;1.42;1.13;;;13.00;90.80;;;;;;4901059;29;20040;-91
2021/09/27 08:04:13;;;;;;;1.58;1.23;;;13.00;90.80;;;;;;4901856;29;20032;-90
2021/09/27 08:06:38;;;;;;;2.80;2.13;;;13.00;90.80;;;;;;4900979;29;20044;-90
2021/09/27 08:09:06;;;;;;;1.33;1.02;;;13.10;90.50;;;;;;4918038;29;20036;-91
2021/09/27 08:11:33;;;;;;;1.45;1.35;;;13.20;90.10;;;;;;4901485;29;20134;-92
2021/09/27 08:13:59;;;;;;;1.08;0.98;;;13.30;88.60;;;;;;4902977;29;20040;-92
2021/09/27 08:16:24;;;;;;;1.35;1.13;;;13.40;87.30;;;;;;4901896;29;20036;-92
2021/09/27 08:18:50;;;;;;;1.48;1.05;;;13.40;86.30;;;;;;4900818;29;20036;-91
2021/09/27 08:21:19;;;;;;;0.98;0.90;;;13.50;86.50;;;;;;4900852;29;20051;-91
2021/09/27 08:23:45;;;;;;;1.45;1.27;;;13.60;84.70;;;;;;4901507;29;20037;-91
2021/09/27 08:26:11;;;;;;;1.42;1.30;;;13.70;84.50;;;;;;4901536;29;20067;-92
2021/09/27 08:28:38;;;;;;;1.00;0.90;;;13.80;83.70;;;;;;4919008;29;20040;-91
2021/09/27 08:31:11;;;;;;;1.33;1.00;;;13.80;82.90;;;;;;4901127;29;20048;-92
2021/09/27 08:33:38;;;;;;;1.27;1.00;;;14.00;83.70;;;;;;4902128;29;20038;-92
2021/09/27 08:36:06;;;;;;;0.90;0.90;;;14.10;83.10;;;;;;4902179;29;20036;-91
2021/09/27 08:38:37;;;;;;;0.88;0.88;;;14.20;82.40;;;;;;4901796;29;20043;-92
2021/09/27 08:41:06;;;;;;;0.95;0.90;;;14.30;83.00;;;;;;4902039;29;20460;-91
2021/09/27 08:44:08;;;;;;;1.05;0.95;;;14.50;82.30;;;;;;4901596;29;20040;-93
2021/09/27 08:47:02;;;;;;;0.60;0.60;;;14.60;80.60;;;;;;4902283;29;20119;-91
2021/09/27 08:50:06;;;;;;;1.85;0.98;;;14.70;77.80;;;;;;4902722;29;20032;-91
2021/09/27 08:52:38;;;;;;;0.63;0.63;;;14.80;78.90;;;;;;4879613;29;20044;-91
2021/09/27 08:55:11;;;;;;;0.93;0.88;;;14.80;77.40;;;;;;4902202;29;20265;-91
2021/09/27 08:58:18;;;;;;;1.73;1.00;;;14.80;75.00;;;;;;4902132;29;20138;-90
2021/09/27 09:01:13;;;;;;;0.90;0.90;;;14.90;73.40;;;;;;4880473;29;20044;-92
2021/09/27 09:03:49;;;;;;;0.60;0.60;;;14.90;75.40;;;;;;4885230;29;20373;-92
2021/09/27 09:06:27;;;;;;;0.70;0.70;;;14.90;73.50;;;;;;4902154;29;20036;-92
2021/09/27 09:08:56;;;;;;;0.60;0.60;;;14.80;73.20;;;;;;4901145;29;20036;-92
2021/09/27 09:11:37;;;;;;;0.60;0.60;;;14.90;74.10;;;;;;4917797;29;20040;-92
2021/09/27 09:14:12;;;;;;;1.02;0.82;;;14.90;71.90;;;;;;4901132;29;20032;-92
2021/09/27 09:16:40;;;;;;;2.40;1.15;;;14.90;73.40;;;;;;4893109;29;20048;-91
2021/09/27 09:19:10;;;;;;;0.75;0.75;;;14.90;72.90;;;;;;4904558;29;20089;-91
2021/09/27 09:21:57;;;;;;;0.90;0.90;;;15.00;73.40;;;;;;4893147;29;20037;-92
2021/09/27 09:24:28;;;;;;;0.63;0.63;;;15.10;71.30;;;;;;4902815;29;20127;-92
2021/09/27 09:26:59;;;;;;;0.40;0.40;;;15.00;71.60;;;;;;4889456;29;20437;-92
2021/09/27 09:29:30;;;;;;;0.70;0.70;;;15.10;71.90;;;;;;4890756;29;20040;-92
2021/09/27 09:32:17;;;;;;;0.80;0.80;;;15.10;71.20;;;;;;4886245;29;20059;-91
2021/09/27 09:34:45;;;;;;;0.98;0.80;;;15.10;71.80;;;;;;4887856;29;20048;-93
2021/09/27 09:37:32;;;;;;;0.77;0.77;;;15.30;70.10;;;;;;4871279;29;20518;-93
2021/09/27 09:40:15;;;;;;;0.45;0.45;;;15.30;66.70;;;;;;4901518;29;20039;-93
2021/09/27 09:42:58;;;;;;;0.80;0.80;;;15.30;68.90;;;;;;4900012;29;20048;-94
2021/09/27 09:45:28;;;;;;;0.90;0.90;;;15.40;69.20;;;;;;4899219;29;20128;-94
2021/09/27 09:48:22;;;;;;;0.98;0.98;;;15.50;70.00;;;;;;4905403;29;20044;-94
2021/09/27 09:50:57;;;;;;;0.57;0.57;;;15.60;66.60;;;;;;4895291;29;20044;-93
2021/09/27 09:53:29;;;;;;;1.20;0.93;;;15.60;68.50;;;;;;4903553;29;20045;-94
2021/09/27 09:56:09;;;;;;;0.60;0.50;;;15.70;68.70;;;;;;4887565;29;20041;-92
2021/09/27 09:58:42;;;;;;;0.88;0.88;;;15.80;67.80;;;;;;4899072;29;20039;-93
2021/09/27 10:01:35;;;;;;;1.00;1.00;;;15.80;67.10;;;;;;4901691;29;20055;-94
2021/09/27 10:04:12;;;;;;;2.03;0.88;;;15.70;67.10;;;;;;4906041;29;20214;-94
2021/09/27 10:06:42;;;;;;;0.80;0.80;;;15.60;67.90;;;;;;4904709;29;20044;-94
2021/09/27 10:09:25;;;;;;;0.63;0.63;;;15.50;67.20;;;;;;4904224;29;20048;-94
2021/09/27 10:11:57;;;;;;;4.38;0.77;;;15.50;65.70;;;;;;4921273;29;20044;-94
2021/09/27 10:14:29;;;;;;;1.10;0.80;;;15.30;67.00;;;;;;4905853;29;20119;-94
2021/09/27 10:17:09;;;;;;;1.08;0.82;;;15.20;67.30;;;;;;4904380;29;20044;-93
2021/09/27 10:19:40;;;;;;;0.80;0.80;;;15.10;67.60;;;;;;4921094;29;20047;-95
2021/09/27 10:22:10;;;;;;;1.02;0.77;;;15.10;68.40;;;;;;4920910;29;20044;-94
2021/09/27 10:24:46;;;;;;;1.35;0.77;;;15.10;68.20;;;;;;4910543;29;20035;-94
2021/09/27 10:27:34;;;;;;;0.88;0.80;;;15.10;67.50;;;;;;4920851;29;20395;-94
2021/09/27 10:30:14;;;;;;;1.95;1.10;;;15.10;67.40;;;;;;4902964;29;20135;-94
2021/09/27 10:32:46;;;;;;;1.65;1.00;;;15.20;68.00;;;;;;4914996;29;20036;-91
2021/09/27 10:35:28;;;;;;;2.13;0.90;;;15.20;68.10;;;;;;4904236;29;20479;-92
2021/09/27 10:38:10;;;;;;;1.27;1.00;;;15.20;67.50;;;;;;4903530;29;20079;-94
2021/09/27 10:40:36;;;;;;;4.43;1.45;;;15.30;67.70;;;;;;4902842;29;20048;-93
2021/09/27 10:50:57;;;;;;;;;;;;;;;;;;;;;
2021/09/27 11:39:52;;;;;;;0.70;0.70;;;15.30;64.50;;;;;;4653384;30;20142;-96
2021/09/27 11:43:03;;;;;;;0.60;0.60;;;15.30;63.00;;;;;;4591763;31;20044;-95
2021/09/27 11:46:20;;;;;;;0.65;0.65;;;15.20;64.50;;;;;;4590881;30;20051;-95
2021/09/27 11:49:41;;;;;;;0.30;0.30;;;15.20;64.20;;;;;;4652743;30;20048;-94
2021/09/27 11:52:39;;;;;;;0.63;0.63;;;15.20;64.80;;;;;;4727325;30;20045;-94
2021/09/27 11:55:29;;;;;;;0.70;0.70;;;15.30;63.00;;;;;;4714335;30;20036;-93
2021/09/27 11:58:02;;;;;;;0.40;0.40;;;15.20;64.50;;;;;;4800574;29;20095;-91
2021/09/27 12:00:49;;;;;;;0.55;0.55;;;15.40;65.00;;;;;;4809540;29;20046;-93
2021/09/27 12:03:34;;;;;;;0.47;0.47;;;15.50;65.20;;;;;;4863876;29;20081;-93
2021/09/27 12:06:16;;;;;;;1.55;1.05;;;15.60;64.60;;;;;;4869218;29;20033;-91
2021/09/27 12:09:16;;;;;;;0.70;0.70;;;15.80;64.90;;;;;;4871299;29;20127;-92
2021/09/27 12:12:06;;;;;;;0.85;0.75;;;15.90;62.70;;;;;;4869482;29;20063;-94
2021/09/27 12:14:47;;;;;;;2.08;0.70;;;15.90;62.20;;;;;;4892790;29;20460;-96
2021/09/27 12:17:16;;;;;;;0.70;0.70;;;15.80;63.00;;;;;;4879320;29;20041;-92
2021/09/27 12:20:03;;;;;;;1.02;0.70;;;15.70;63.10;;;;;;4885822;29;20037;-92
2021/09/27 12:22:36;;;;;;;0.85;0.77;;;15.60;62.80;;;;;;4857534;29;20115;-93
2021/09/27 12:25:11;;;;;;;0.77;0.70;;;15.50;63.70;;;;;;4867800;29;20498;-93
2021/09/27 12:28:00;;;;;;;2.13;0.80;;;15.40;63.90;;;;;;4892990;29;20343;-91
2021/09/27 12:41:23;;;;;;;0.93;0.93;;;15.20;64.60;;;;;;4755986;30;20039;-93
2021/09/27 12:43:52;;;;;;;1.02;0.98;;;15.20;65.20;;;;;;4781484;29;20057;-93
2021/09/27 12:46:28;;;;;;;0.90;0.90;;;15.30;64.70;;;;;;4822299;29;20046;-91
2021/09/27 12:49:10;;;;;;;1.10;0.90;;;15.30;64.80;;;;;;4865794;29;20085;-93
2021/09/27 12:51:50;;;;;;;1.02;0.90;;;15.30;65.20;;;;;;4885371;29;20052;-93
2021/09/27 12:54:43;;;;;;;2.70;0.80;;;15.40;65.60;;;;;;4884956;29;20047;-93
2021/09/27 12:57:38;;;;;;;0.93;0.80;;;15.40;64.90;;;;;;4898849;29;20043;-94
2021/09/27 13:00:21;;;;;;;2.08;1.13;;;15.40;64.70;;;;;;4891024;29;20060;-93
2021/09/27 13:03:21;;;;;;;1.20;1.20;;;15.40;65.30;;;;;;4894386;29;20127;-93
2021/09/27 13:06:43;;;;;;;1.00;1.00;;;15.40;64.60;;;;;;4902105;29;20119;-93
2021/09/27 13:09:34;;;;;;;0.80;0.80;;;15.30;65.50;;;;;;4904939;29;20037;-93
2021/09/27 13:12:38;;;;;;;0.90;0.90;;;15.40;65.90;;;;;;4887519;29;20049;-93
2021/09/27 13:15:25;;;;;;;1.20;1.10;;;15.40;65.90;;;;;;4898264;29;20035;-93
2021/09/27 13:18:24;;;;;;;1.20;1.13;;;15.50;65.90;;;;;;4894004;29;20349;-93
2021/09/27 13:21:35;;;;;;;1.00;0.82;;;15.40;64.90;;;;;;4882057;29;20061;-94
2021/09/27 13:24:44;;;;;;;1.27;1.17;;;15.40;64.70;;;;;;4897664;29;20056;-93
2021/09/27 13:28:28;;;;;;;0.88;0.88;;;15.20;65.60;;;;;;4904861;29;20067;-93
2021/09/27 13:30:34;;;;;;;1.10;1.00;;;15.10;66.20;;;;;;4870783;29;20083;-91
2021/09/27 13:33:11;;;;;;;0.93;0.88;;;15.10;66.60;;;;;;4873817;29;20152;-92
2021/09/27 13:36:09;;;;;;;1.10;1.00;;;15.10;67.00;;;;;;4889866;29;20045;-92
2021/09/27 13:39:02;;;;;;;1.30;1.10;;;15.10;66.90;;;;;;4876649;29;20036;-90
2021/09/27 13:41:57;;;;;;;1.27;1.17;;;15.00;67.50;;;;;;4885250;29;20052;-91
2021/09/27 13:44:58;;;;;;;1.67;1.35;;;15.00;68.00;;;;;;4894251;29;20108;-94
2021/09/27 13:47:29;;;;;;;2.45;1.33;;;15.00;68.30;;;;;;4896404;29;20048;-93
2021/09/27 13:50:01;;;;;;;1.75;1.45;;;15.00;68.50;;;;;;4897586;29;20039;-93
2021/09/27 13:52:52;;;;;;;1.58;1.35;;;14.90;68.80;;;;;;4904374;29;20080;-92
2021/09/27 13:55:24;;;;;;;1.80;1.60;;;14.90;69.50;;;;;;4891770;29;20036;-92
2021/09/27 13:57:51;;;;;;;1.58;1.48;;;14.90;69.30;;;;;;4898668;29;20445;-92
2021/09/27 14:00:20;;;;;;;1.30;1.20;;;14.80;69.40;;;;;;4892705;29;20041;-92
2021/09/27 14:02:48;;;;;;;2.00;1.38;;;14.70;69.70;;;;;;4914796;29;20066;-92
2021/09/27 14:05:16;;;;;;;3.67;1.70;;;14.70;69.90;;;;;;4891737;29;20080;-93
2021/09/27 14:07:44;;;;;;;2.20;1.42;;;14.70;70.00;;;;;;4890221;29;20479;-92
2021/09/27 14:10:36;;;;;;;1.63;1.52;;;14.70;70.00;;;;;;4893924;29;20044;-94
2021/09/27 14:13:26;;;;;;;1.98;1.70;;;14.60;70.40;;;;;;4892496;29;20476;-92
2021/09/27 14:15:55;;;;;;;3.22;2.22;;;14.60;70.40;;;;;;4894771;29;20041;-93
2021/09/27 14:18:23;;;;;;;3.05;2.15;;;14.50;70.60;;;;;;4878620;29;20040;-92
2021/09/27 14:21:09;;;;;;;1.75;1.50;;;14.50;70.80;;;;;;4875491;29;20046;-91
2021/09/27 14:24:12;;;;;;;1.83;1.52;;;14.40;71.50;;;;;;4896258;29;20040;-92
2021/09/27 14:26:54;;;;;;;3.40;2.08;;;14.40;71.50;;;;;;4909574;29;20115;-91
2021/09/27 14:29:24;;;;;;;2.45;1.60;;;14.30;71.70;;;;;;4893452;29;20032;-92
2021/09/27 14:31:55;;;;;;;1.55;1.42;;;14.30;72.10;;;;;;4912157;29;20048;-93
2021/09/27 14:34:22;;;;;;;1.50;1.40;;;14.30;72.30;;;;;;4898097;29;20404;-92
2021/09/27 14:36:53;;;;;;;1.52;1.27;;;14.30;72.70;;;;;;4884837;29;20061;-92
2021/09/27 14:39:28;;;;;;;1.85;1.38;;;14.20;72.90;;;;;;4893414;29;20163;-92
2021/09/27 14:42:03;;;;;;;2.58;1.42;;;14.20;73.10;;;;;;4897329;29;20036;-94
2021/09/27 14:44:31;;;;;;;2.25;1.60;;;14.20;73.40;;;;;;4911714;29;20048;-93
2021/09/27 14:47:01;;;;;;;2.70;1.90;;;14.10;74.00;;;;;;4914549;29;20103;-92
2021/09/27 14:49:30;;;;;;;2.35;1.70;;;14.10;74.70;;;;;;4883130;29;20040;-91
2021/09/27 14:52:07;;;;;;;3.50;2.08;;;14.00;75.30;;;;;;4900215;29;20051;-91
2021/09/27 14:54:34;;;;;;;3.15;1.60;;;14.00;76.50;;;;;;4909927;29;20044;-92
2021/09/27 14:57:03;;;;;;;4.00;2.30;;;14.00;76.00;;;;;;4893697;29;20076;-92